B31 EFVA-EFTP
Flight info
| Callsign | B31 |
|---|---|
| Flight time | 0h 29m |
| Altitude | 21000 |
| Route | GUBTU DCT OTVEG DCT GEMKU TPAP |
| Aircraft | HAWK/M-SDGIRY/C |
Departure
| Time | 2026-05-06 11:03 |
|---|---|
| Airport | Vaasa Airport (EFVA) |
Arrival
| Time | 2026-05-06 11:33 |
|---|---|
| Airport | Tampere-Pirkkala Airport (EFTP) |
| Time | Latitude | Longitude | Altitude | Speed | Heading |
|---|---|---|---|---|---|
| 2026-05-06 10:55 | 63.04494 | 21.76103 | 21 ft | 0 kts | 283° |
| 2026-05-06 10:59 | 63.04491 | 21.76093 | -7 ft | 3 kts | 202° |
| 2026-05-06 10:59 | 63.04482 | 21.76138 | 21 ft | 11 kts | 63° |
| 2026-05-06 11:00 | 63.04541 | 21.76183 | 21 ft | 13 kts | 343° |
| 2026-05-06 11:00 | 63.04648 | 21.76115 | 21 ft | 19 kts | 343° |
| 2026-05-06 11:00 | 63.04781 | 21.76027 | 21 ft | 19 kts | 337° |
| 2026-05-06 11:00 | 63.04867 | 21.76053 | 21 ft | 11 kts | 56° |
| 2026-05-06 11:01 | 63.04877 | 21.76148 | 22 ft | 4 kts | 66° |
| 2026-05-06 11:01 | 63.04884 | 21.76194 | 23 ft | 1 kts | 76° |
| 2026-05-06 11:01 | 63.04909 | 21.76263 | 25 ft | 14 kts | 36° |
| 2026-05-06 11:01 | 63.05046 | 21.76223 | 22 ft | 27 kts | 341° |
| 2026-05-06 11:02 | 63.05239 | 21.76093 | 22 ft | 34 kts | 337° |
| 2026-05-06 11:02 | 63.05442 | 21.75961 | 25 ft | 31 kts | 342° |
| 2026-05-06 11:02 | 63.05649 | 21.75825 | 25 ft | 32 kts | 343° |
| 2026-05-06 11:02 | 63.05846 | 21.75722 | 23 ft | 21 kts | 353° |
| 2026-05-06 11:03 | 63.05832 | 21.75697 | 23 ft | 22 kts | 164° |
| 2026-05-06 11:03 | 63.05387 | 21.76001 | 23 ft | 114 kts | 167° |
| 2026-05-06 11:03 | 63.04419 | 21.76744 | 362 ft | 176 kts | 168° |
| 2026-05-06 11:03 | 63.03047 | 21.77670 | 1207 ft | 220 kts | 169° |
| 2026-05-06 11:04 | 63.01552 | 21.78665 | 2474 ft | 232 kts | 166° |
| 2026-05-06 11:04 | 63.00019 | 21.79914 | 3989 ft | 236 kts | 165° |
| 2026-05-06 11:04 | 62.98445 | 21.81221 | 5417 ft | 245 kts | 163° |
| 2026-05-06 11:04 | 62.96730 | 21.82171 | 6210 ft | 277 kts | 174° |
| 2026-05-06 11:05 | 62.94785 | 21.83809 | 7099 ft | 305 kts | 164° |
| 2026-05-06 11:05 | 62.92828 | 21.85306 | 9183 ft | 289 kts | 164° |
| 2026-05-06 11:05 | 62.90997 | 21.86827 | 11211 ft | 276 kts | 163° |
| 2026-05-06 11:05 | 62.89135 | 21.88084 | 12314 ft | 295 kts | 166° |
| 2026-05-06 11:06 | 62.87166 | 21.90074 | 13045 ft | 329 kts | 149° |
| 2026-05-06 11:06 | 62.85181 | 21.92843 | 14150 ft | 345 kts | 149° |
| 2026-05-06 11:06 | 62.83129 | 21.95735 | 15424 ft | 354 kts | 150° |
| 2026-05-06 11:06 | 62.81081 | 21.98652 | 16984 ft | 355 kts | 151° |
| 2026-05-06 11:07 | 62.78951 | 22.01460 | 18518 ft | 357 kts | 153° |
| 2026-05-06 11:07 | 62.76817 | 22.04275 | 19279 ft | 367 kts | 153° |
| 2026-05-06 11:07 | 62.74601 | 22.07269 | 19905 ft | 383 kts | 152° |
| 2026-05-06 11:07 | 62.72268 | 22.10449 | 20303 ft | 406 kts | 153° |
| 2026-05-06 11:08 | 62.69768 | 22.13676 | 20783 ft | 426 kts | 154° |
| 2026-05-06 11:08 | 62.67167 | 22.17090 | 21130 ft | 452 kts | 154° |
| 2026-05-06 11:08 | 62.64398 | 22.20712 | 20943 ft | 487 kts | 153° |
| 2026-05-06 11:08 | 62.61482 | 22.24575 | 20971 ft | 492 kts | 153° |
| 2026-05-06 11:09 | 62.58515 | 22.28373 | 21004 ft | 496 kts | 153° |
| 2026-05-06 11:09 | 62.55581 | 22.32278 | 21092 ft | 500 kts | 154° |
| 2026-05-06 11:09 | 62.52591 | 22.36256 | 20685 ft | 510 kts | 154° |
| 2026-05-06 11:09 | 62.49525 | 22.40200 | 20663 ft | 508 kts | 156° |
| 2026-05-06 11:10 | 62.46443 | 22.43948 | 20797 ft | 506 kts | 156° |
| 2026-05-06 11:10 | 62.43401 | 22.47639 | 21016 ft | 504 kts | 156° |
| 2026-05-06 11:10 | 62.40360 | 22.51477 | 20931 ft | 511 kts | 154° |
| 2026-05-06 11:10 | 62.37284 | 22.55287 | 21047 ft | 508 kts | 157° |
| 2026-05-06 11:11 | 62.34224 | 22.59151 | 21000 ft | 510 kts | 155° |
| 2026-05-06 11:11 | 62.31226 | 22.63147 | 21092 ft | 503 kts | 155° |
| 2026-05-06 11:11 | 62.28215 | 22.66965 | 20873 ft | 503 kts | 156° |
| 2026-05-06 11:11 | 62.25149 | 22.70608 | 20697 ft | 499 kts | 159° |
| 2026-05-06 11:12 | 62.22084 | 22.73928 | 21080 ft | 490 kts | 160° |
| 2026-05-06 11:12 | 62.19021 | 22.77155 | 21172 ft | 491 kts | 159° |
| 2026-05-06 11:12 | 62.16020 | 22.80670 | 21221 ft | 494 kts | 158° |
| 2026-05-06 11:12 | 62.13058 | 22.84337 | 21075 ft | 489 kts | 158° |
| 2026-05-06 11:13 | 62.10132 | 22.88059 | 20660 ft | 487 kts | 157° |
| 2026-05-06 11:13 | 62.07241 | 22.91708 | 20497 ft | 478 kts | 157° |
| 2026-05-06 11:13 | 62.04395 | 22.95286 | 20215 ft | 473 kts | 157° |
| 2026-05-06 11:13 | 62.01581 | 22.98802 | 20116 ft | 464 kts | 157° |
| 2026-05-06 11:14 | 61.98811 | 23.02245 | 19705 ft | 462 kts | 157° |
| 2026-05-06 11:14 | 61.96039 | 23.05646 | 18858 ft | 470 kts | 156° |
| 2026-05-06 11:14 | 61.93223 | 23.09089 | 18163 ft | 462 kts | 155° |
| 2026-05-06 11:14 | 61.90485 | 23.12458 | 17535 ft | 447 kts | 154° |
| 2026-05-06 11:15 | 61.87837 | 23.15759 | 16697 ft | 437 kts | 154° |
| 2026-05-06 11:15 | 61.85241 | 23.19036 | 15734 ft | 431 kts | 153° |
| 2026-05-06 11:15 | 61.82691 | 23.22281 | 14867 ft | 422 kts | 152° |
| 2026-05-06 11:15 | 61.80215 | 23.25433 | 14137 ft | 408 kts | 152° |
| 2026-05-06 11:16 | 61.77816 | 23.28463 | 13408 ft | 396 kts | 152° |
| 2026-05-06 11:16 | 61.75478 | 23.31407 | 12558 ft | 386 kts | 152° |
| 2026-05-06 11:16 | 61.73202 | 23.34289 | 11994 ft | 372 kts | 152° |
| 2026-05-06 11:16 | 61.71008 | 23.37001 | 11315 ft | 362 kts | 153° |
| 2026-05-06 11:17 | 61.68849 | 23.39593 | 10848 ft | 350 kts | 153° |
| 2026-05-06 11:17 | 61.66785 | 23.42064 | 10348 ft | 340 kts | 153° |
| 2026-05-06 11:17 | 61.64788 | 23.44425 | 10233 ft | 321 kts | 154° |
| 2026-05-06 11:17 | 61.62881 | 23.46627 | 10014 ft | 307 kts | 155° |
| 2026-05-06 11:18 | 61.61012 | 23.48709 | 9622 ft | 301 kts | 155° |
| 2026-05-06 11:18 | 61.59296 | 23.51158 | 9250 ft | 300 kts | 133° |
| 2026-05-06 11:18 | 61.58205 | 23.54886 | 8647 ft | 304 kts | 115° |
| 2026-05-06 11:18 | 61.57626 | 23.59177 | 7863 ft | 312 kts | 99° |
| 2026-05-06 11:19 | 61.57286 | 23.63604 | 7610 ft | 302 kts | 98° |
| 2026-05-06 11:19 | 61.57028 | 23.67890 | 7148 ft | 277 kts | 95° |
| 2026-05-06 11:19 | 61.56883 | 23.71822 | 6171 ft | 277 kts | 92° |
| 2026-05-06 11:19 | 61.56782 | 23.75984 | 5344 ft | 291 kts | 91° |
| 2026-05-06 11:20 | 61.56702 | 23.80237 | 4913 ft | 288 kts | 91° |
| 2026-05-06 11:20 | 61.56581 | 23.84301 | 4435 ft | 255 kts | 102° |
| 2026-05-06 11:20 | 61.55851 | 23.87399 | 3674 ft | 242 kts | 136° |
| 2026-05-06 11:20 | 61.54421 | 23.89299 | 3245 ft | 241 kts | 160° |
| 2026-05-06 11:21 | 61.52909 | 23.90665 | 3009 ft | 236 kts | 162° |
| 2026-05-06 11:21 | 61.51334 | 23.91530 | 2711 ft | 225 kts | 186° |
| 2026-05-06 11:21 | 61.49943 | 23.90758 | 2667 ft | 205 kts | 214° |
| 2026-05-06 11:21 | 61.48720 | 23.89348 | 2656 ft | 198 kts | 219° |
| 2026-05-06 11:22 | 61.47778 | 23.87340 | 2653 ft | 189 kts | 232° |
| 2026-05-06 11:22 | 61.47032 | 23.85214 | 2663 ft | 173 kts | 242° |
| 2026-05-06 11:22 | 61.46550 | 23.82948 | 2529 ft | 171 kts | 250° |
| 2026-05-06 11:22 | 61.46069 | 23.80610 | 2246 ft | 175 kts | 242° |
| 2026-05-06 11:23 | 61.45526 | 23.78418 | 2137 ft | 160 kts | 250° |
| 2026-05-06 11:23 | 61.45074 | 23.76484 | 2011 ft | 142 kts | 247° |
| 2026-05-06 11:23 | 61.44652 | 23.74642 | 1680 ft | 133 kts | 246° |
| 2026-05-06 11:23 | 61.44263 | 23.72957 | 1426 ft | 127 kts | 248° |
| 2026-05-06 11:24 | 61.43873 | 23.71240 | 1317 ft | 130 kts | 246° |
| 2026-05-06 11:24 | 61.43484 | 23.69552 | 1175 ft | 127 kts | 247° |
| 2026-05-06 11:24 | 61.43115 | 23.67935 | 988 ft | 118 kts | 249° |
| 2026-05-06 11:24 | 61.42887 | 23.66923 | 884 ft | 112 kts | 246° |
| 2026-05-06 11:25 | 61.42570 | 23.65493 | 673 ft | 106 kts | 246° |
| 2026-05-06 11:25 | 61.42240 | 23.64102 | 581 ft | 109 kts | 246° |
| 2026-05-06 11:25 | 61.41922 | 23.62655 | 404 ft | 106 kts | 247° |
| 2026-05-06 11:25 | 61.41636 | 23.61393 | 384 ft | 104 kts | 244° |
| 2026-05-06 11:26 | 61.41214 | 23.59562 | 701 ft | 168 kts | 246° |
| 2026-05-06 11:26 | 61.40625 | 23.57171 | 1311 ft | 202 kts | 226° |
| 2026-05-06 11:26 | 61.39221 | 23.55768 | 1767 ft | 252 kts | 189° |
| 2026-05-06 11:26 | 61.37419 | 23.56488 | 1994 ft | 279 kts | 160° |
| 2026-05-06 11:27 | 61.35624 | 23.58150 | 2009 ft | 284 kts | 154° |
| 2026-05-06 11:27 | 61.34297 | 23.61155 | 2059 ft | 291 kts | 116° |
| 2026-05-06 11:27 | 61.34009 | 23.65254 | 2110 ft | 289 kts | 82° |
| 2026-05-06 11:27 | 61.34667 | 23.69132 | 1937 ft | 280 kts | 64° |
| 2026-05-06 11:28 | 61.35468 | 23.72802 | 1800 ft | 270 kts | 61° |
| 2026-05-06 11:28 | 61.36256 | 23.76277 | 1716 ft | 262 kts | 62° |
| 2026-05-06 11:28 | 61.37030 | 23.79654 | 1843 ft | 247 kts | 62° |
| 2026-05-06 11:28 | 61.37760 | 23.82843 | 1877 ft | 246 kts | 62° |
| 2026-05-06 11:29 | 61.38895 | 23.85367 | 1776 ft | 242 kts | 17° |
| 2026-05-06 11:29 | 61.40488 | 23.85467 | 2008 ft | 227 kts | 337° |
| 2026-05-06 11:29 | 61.41971 | 23.84251 | 1954 ft | 231 kts | 333° |
| 2026-05-06 11:29 | 61.43460 | 23.82990 | 1842 ft | 230 kts | 333° |
| 2026-05-06 11:30 | 61.44790 | 23.81330 | 1729 ft | 216 kts | 306° |
| 2026-05-06 11:30 | 61.45265 | 23.78651 | 1817 ft | 191 kts | 271° |
| 2026-05-06 11:30 | 61.44963 | 23.76027 | 1754 ft | 181 kts | 250° |
| 2026-05-06 11:30 | 61.44465 | 23.73745 | 1625 ft | 166 kts | 246° |
| 2026-05-06 11:31 | 61.43993 | 23.71721 | 1396 ft | 144 kts | 247° |
| 2026-05-06 11:31 | 61.43577 | 23.69982 | 1171 ft | 121 kts | 248° |
| 2026-05-06 11:31 | 61.43227 | 23.68463 | 1028 ft | 115 kts | 249° |
| 2026-05-06 11:31 | 61.42890 | 23.66902 | 825 ft | 125 kts | 247° |
| 2026-05-06 11:32 | 61.42515 | 23.65261 | 656 ft | 125 kts | 248° |
| 2026-05-06 11:32 | 61.42154 | 23.63694 | 510 ft | 118 kts | 249° |
| 2026-05-06 11:32 | 61.41806 | 23.62162 | 376 ft | 106 kts | 248° |
| 2026-05-06 11:32 | 61.41543 | 23.60992 | 382 ft | 69 kts | 245° |
| 2026-05-06 11:33 | 61.41383 | 23.60299 | 393 ft | 45 kts | 245° |
| 2026-05-06 11:33 | 61.41259 | 23.59744 | 385 ft | 39 kts | 243° |
| 2026-05-06 11:33 | 61.41155 | 23.59290 | 390 ft | 31 kts | 243° |
| 2026-05-06 11:33 | 61.41090 | 23.59186 | 391 ft | 6 kts | 153° |
| 2026-05-06 11:34 | 61.41023 | 23.59252 | 390 ft | 13 kts | 154° |
| 2026-05-06 11:34 | 61.40975 | 23.59402 | 388 ft | 13 kts | 91° |
| 2026-05-06 11:34 | 61.40976 | 23.59563 | 390 ft | 11 kts | 90° |
| 2026-05-06 11:34 | 61.40966 | 23.59729 | 387 ft | 13 kts | 103° |
| 2026-05-06 11:35 | 61.40939 | 23.59909 | 385 ft | 13 kts | 112° |
| 2026-05-06 11:35 | 61.40894 | 23.60080 | 382 ft | 15 kts | 124° |
| 2026-05-06 11:35 | 61.40814 | 23.60262 | 374 ft | 19 kts | 134° |
| 2026-05-06 11:35 | 61.40727 | 23.60457 | 372 ft | 18 kts | 121° |
| 2026-05-06 11:36 | 61.40703 | 23.60717 | 371 ft | 18 kts | 82° |
| 2026-05-06 11:36 | 61.40724 | 23.60963 | 371 ft | 17 kts | 88° |
| 2026-05-06 11:36 | 61.40712 | 23.61185 | 371 ft | 16 kts | 95° |
| 2026-05-06 11:36 | 61.40729 | 23.61417 | 370 ft | 14 kts | 50° |
| 2026-05-06 11:37 | 61.40737 | 23.61488 | 371 ft | 2 kts | 132° |
| 2026-05-06 11:37 | 61.40731 | 23.61500 | 371 ft | 0 kts | 132° |